sensor_id;sensor_type;location;lat;lon;timestamp;P1;durP1;ratioP1;P2;durP2;ratioP2
22480;SDS011;11407;56.964;-2.212;2023-02-28T00:02:07;4.33;;;1.50;;
22480;SDS011;11407;56.964;-2.212;2023-02-28T00:04:32;2.83;;;1.70;;
22480;SDS011;11407;56.964;-2.212;2023-02-28T00:06:57;3.87;;;1.80;;
22480;SDS011;11407;56.964;-2.212;2023-02-28T00:09:22;4.17;;;2.00;;
22480;SDS011;11407;56.964;-2.212;2023-02-28T00:11:48;3.53;;;1.60;;
22480;SDS011;11407;56.964;-2.212;2023-02-28T00:14:13;3.20;;;2.13;;
22480;SDS011;11407;56.964;-2.212;2023-02-28T00:16:38;3.33;;;2.60;;
22480;SDS011;11407;56.964;-2.212;2023-02-28T00:19:03;2.60;;;2.17;;
22480;SDS011;11407;56.964;-2.212;2023-02-28T00:21:29;4.23;;;2.27;;
22480;SDS011;11407;56.964;-2.212;2023-02-28T00:23:54;2.50;;;2.03;;
22480;SDS011;11407;56.964;-2.212;2023-02-28T00:26:19;4.90;;;2.27;;
22480;SDS011;11407;56.964;-2.212;2023-02-28T00:28:45;3.73;;;2.10;;
22480;SDS011;11407;56.964;-2.212;2023-02-28T00:31:10;4.13;;;2.20;;
22480;SDS011;11407;56.964;-2.212;2023-02-28T00:33:35;3.77;;;2.00;;
22480;SDS011;11407;56.964;-2.212;2023-02-28T00:36:05;2.63;;;1.57;;
22480;SDS011;11407;56.964;-2.212;2023-02-28T00:38:30;2.13;;;1.63;;
22480;SDS011;11407;56.964;-2.212;2023-02-28T00:40:56;2.63;;;1.30;;
22480;SDS011;11407;56.964;-2.212;2023-02-28T00:43:21;3.03;;;1.27;;
22480;SDS011;11407;56.964;-2.212;2023-02-28T00:45:46;2.67;;;1.40;;
22480;SDS011;11407;56.964;-2.212;2023-02-28T00:48:11;2.57;;;1.43;;
22480;SDS011;11407;56.964;-2.212;2023-02-28T00:50:37;3.57;;;1.60;;
22480;SDS011;11407;56.964;-2.212;2023-02-28T00:53:02;2.60;;;1.40;;
22480;SDS011;11407;56.964;-2.212;2023-02-28T00:55:27;2.80;;;1.50;;
22480;SDS011;11407;56.964;-2.212;2023-02-28T00:57:52;1.87;;;1.30;;
22480;SDS011;11407;56.964;-2.212;2023-02-28T01:00:18;3.70;;;1.57;;
22480;SDS011;11407;56.964;-2.212;2023-02-28T01:02:43;2.20;;;1.13;;
22480;SDS011;11407;56.964;-2.212;2023-02-28T01:05:08;2.77;;;1.50;;
22480;SDS011;11407;56.964;-2.212;2023-02-28T01:07:33;1.47;;;1.30;;
22480;SDS011;11407;56.964;-2.212;2023-02-28T01:09:59;4.90;;;1.43;;
22480;SDS011;11407;56.964;-2.212;2023-02-28T01:12:24;3.43;;;1.30;;
22480;SDS011;11407;56.964;-2.212;2023-02-28T01:14:49;2.27;;;1.30;;
22480;SDS011;11407;56.964;-2.212;2023-02-28T01:17:14;4.43;;;1.50;;
22480;SDS011;11407;56.964;-2.212;2023-02-28T01:19:40;1.90;;;1.20;;
22480;SDS011;11407;56.964;-2.212;2023-02-28T01:22:06;3.80;;;1.60;;
22480;SDS011;11407;56.964;-2.212;2023-02-28T01:24:31;3.63;;;1.50;;
22480;SDS011;11407;56.964;-2.212;2023-02-28T01:26:57;3.57;;;1.40;;
22480;SDS011;11407;56.964;-2.212;2023-02-28T01:29:22;2.40;;;1.43;;
22480;SDS011;11407;56.964;-2.212;2023-02-28T01:31:47;1.97;;;1.17;;
22480;SDS011;11407;56.964;-2.212;2023-02-28T01:34:12;1.47;;;1.30;;
22480;SDS011;11407;56.964;-2.212;2023-02-28T01:36:38;3.77;;;1.70;;
22480;SDS011;11407;56.964;-2.212;2023-02-28T01:39:03;5.00;;;1.60;;
22480;SDS011;11407;56.964;-2.212;2023-02-28T01:41:29;1.87;;;1.30;;
22480;SDS011;11407;56.964;-2.212;2023-02-28T01:46:21;1.47;;;1.20;;
22480;SDS011;11407;56.964;-2.212;2023-02-28T01:51:29;2.13;;;1.50;;
22480;SDS011;11407;56.964;-2.212;2023-02-28T01:53:56;2.60;;;1.73;;
22480;SDS011;11407;56.964;-2.212;2023-02-28T01:56:24;4.27;;;1.80;;
22480;SDS011;11407;56.964;-2.212;2023-02-28T01:58:50;5.07;;;1.73;;
22480;SDS011;11407;56.964;-2.212;2023-02-28T02:01:16;4.30;;;1.70;;
22480;SDS011;11407;56.964;-2.212;2023-02-28T02:03:49;2.80;;;1.67;;
22480;SDS011;11407;56.964;-2.212;2023-02-28T02:06:20;2.43;;;1.70;;
22480;SDS011;11407;56.964;-2.212;2023-02-28T02:08:46;3.07;;;2.13;;
22480;SDS011;11407;56.964;-2.212;2023-02-28T02:11:11;2.83;;;1.80;;
22480;SDS011;11407;56.964;-2.212;2023-02-28T02:14:21;4.63;;;2.40;;
22480;SDS011;11407;56.964;-2.212;2023-02-28T02:24:03;2.60;;;1.90;;
22480;SDS011;11407;56.964;-2.212;2023-02-28T02:39:36;4.67;;;2.93;;
22480;SDS011;11407;56.964;-2.212;2023-02-28T02:42:09;5.90;;;2.67;;
22480;SDS011;11407;56.964;-2.212;2023-02-28T02:44:40;3.43;;;2.50;;
22480;SDS011;11407;56.964;-2.212;2023-02-28T02:47:10;4.83;;;2.57;;
22480;SDS011;11407;56.964;-2.212;2023-02-28T02:49:38;3.07;;;2.57;;
22480;SDS011;11407;56.964;-2.212;2023-02-28T02:52:06;3.33;;;2.37;;
22480;SDS011;11407;56.964;-2.212;2023-02-28T02:54:33;2.63;;;2.40;;
22480;SDS011;11407;56.964;-2.212;2023-02-28T02:57:01;2.50;;;2.27;;
22480;SDS011;11407;56.964;-2.212;2023-02-28T02:59:29;4.73;;;2.60;;
22480;SDS011;11407;56.964;-2.212;2023-02-28T03:01:56;2.50;;;1.93;;
22480;SDS011;11407;56.964;-2.212;2023-02-28T03:04:23;2.73;;;2.00;;
22480;SDS011;11407;56.964;-2.212;2023-02-28T03:06:50;2.40;;;1.63;;
22480;SDS011;11407;56.964;-2.212;2023-02-28T03:09:19;2.83;;;1.90;;
22480;SDS011;11407;56.964;-2.212;2023-02-28T03:11:44;2.00;;;1.67;;
22480;SDS011;11407;56.964;-2.212;2023-02-28T03:22:09;4.60;;;1.37;;
22480;SDS011;11407;56.964;-2.212;2023-02-28T03:27:08;3.47;;;1.30;;
22480;SDS011;11407;56.964;-2.212;2023-02-28T03:29:58;2.50;;;1.20;;
22480;SDS011;11407;56.964;-2.212;2023-02-28T03:32:24;1.93;;;1.33;;
22480;SDS011;11407;56.964;-2.212;2023-02-28T03:34:55;1.00;;;1.00;;
22480;SDS011;11407;56.964;-2.212;2023-02-28T03:37:22;2.07;;;1.20;;
22480;SDS011;11407;56.964;-2.212;2023-02-28T03:39:59;1.27;;;1.10;;
22480;SDS011;11407;56.964;-2.212;2023-02-28T03:42:29;2.00;;;1.13;;
22480;SDS011;11407;56.964;-2.212;2023-02-28T03:45:30;1.37;;;1.00;;
22480;SDS011;11407;56.964;-2.212;2023-02-28T03:50:26;1.40;;;1.13;;
22480;SDS011;11407;56.964;-2.212;2023-02-28T03:53:03;1.33;;;1.23;;
22480;SDS011;11407;56.964;-2.212;2023-02-28T03:55:31;2.83;;;1.40;;
22480;SDS011;11407;56.964;-2.212;2023-02-28T04:00:30;1.10;;;1.00;;
22480;SDS011;11407;56.964;-2.212;2023-02-28T04:02:57;1.30;;;1.20;;
22480;SDS011;11407;56.964;-2.212;2023-02-28T04:05:23;2.10;;;1.33;;
22480;SDS011;11407;56.964;-2.212;2023-02-28T04:07:49;1.53;;;1.40;;
22480;SDS011;11407;56.964;-2.212;2023-02-28T04:10:15;3.03;;;1.60;;
22480;SDS011;11407;56.964;-2.212;2023-02-28T04:12:40;1.50;;;1.40;;
22480;SDS011;11407;56.964;-2.212;2023-02-28T04:15:05;1.90;;;1.60;;
22480;SDS011;11407;56.964;-2.212;2023-02-28T04:17:31;1.90;;;1.73;;
22480;SDS011;11407;56.964;-2.212;2023-02-28T04:19:56;2.87;;;1.77;;
22480;SDS011;11407;56.964;-2.212;2023-02-28T04:22:22;1.70;;;1.47;;
22480;SDS011;11407;56.964;-2.212;2023-02-28T04:24:50;2.20;;;1.70;;
22480;SDS011;11407;56.964;-2.212;2023-02-28T04:27:16;2.10;;;1.90;;
22480;SDS011;11407;56.964;-2.212;2023-02-28T04:29:41;1.97;;;1.67;;
22480;SDS011;11407;56.964;-2.212;2023-02-28T04:32:09;2.30;;;2.00;;
22480;SDS011;11407;56.964;-2.212;2023-02-28T04:34:35;2.20;;;2.00;;
22480;SDS011;11407;56.964;-2.212;2023-02-28T04:37:00;3.40;;;2.30;;
22480;SDS011;11407;56.964;-2.212;2023-02-28T04:39:26;3.07;;;2.20;;
22480;SDS011;11407;56.964;-2.212;2023-02-28T04:41:51;3.00;;;2.30;;
22480;SDS011;11407;56.964;-2.212;2023-02-28T04:44:16;2.50;;;2.00;;
22480;SDS011;11407;56.964;-2.212;2023-02-28T04:46:42;1.97;;;1.73;;
22480;SDS011;11407;56.964;-2.212;2023-02-28T04:49:10;2.30;;;1.90;;
22480;SDS011;11407;56.964;-2.212;2023-02-28T04:51:36;2.47;;;1.90;;
22480;SDS011;11407;56.964;-2.212;2023-02-28T04:54:01;2.20;;;1.70;;
22480;SDS011;11407;56.964;-2.212;2023-02-28T04:56:27;2.20;;;1.93;;
22480;SDS011;11407;56.964;-2.212;2023-02-28T04:58:52;1.70;;;1.60;;
22480;SDS011;11407;56.964;-2.212;2023-02-28T05:03:49;1.80;;;1.70;;
22480;SDS011;11407;56.964;-2.212;2023-02-28T05:06:15;1.73;;;1.60;;
22480;SDS011;11407;56.964;-2.212;2023-02-28T05:08:41;1.47;;;1.37;;
22480;SDS011;11407;56.964;-2.212;2023-02-28T05:11:07;2.20;;;1.40;;
22480;SDS011;11407;56.964;-2.212;2023-02-28T05:13:37;2.37;;;1.50;;
22480;SDS011;11407;56.964;-2.212;2023-02-28T05:16:02;1.50;;;1.30;;
22480;SDS011;11407;56.964;-2.212;2023-02-28T05:18:27;1.40;;;1.20;;
22480;SDS011;11407;56.964;-2.212;2023-02-28T05:20:52;1.30;;;1.20;;
22480;SDS011;11407;56.964;-2.212;2023-02-28T05:23:17;1.50;;;1.00;;
22480;SDS011;11407;56.964;-2.212;2023-02-28T05:25:44;1.20;;;1.10;;
22480;SDS011;11407;56.964;-2.212;2023-02-28T05:28:09;1.73;;;1.10;;
22480;SDS011;11407;56.964;-2.212;2023-02-28T05:30:35;0.87;;;0.80;;
22480;SDS011;11407;56.964;-2.212;2023-02-28T05:33:00;1.00;;;0.90;;
22480;SDS011;11407;56.964;-2.212;2023-02-28T05:35:25;1.00;;;0.90;;
22480;SDS011;11407;56.964;-2.212;2023-02-28T05:37:51;1.10;;;1.00;;
22480;SDS011;11407;56.964;-2.212;2023-02-28T05:40:16;1.37;;;1.10;;
22480;SDS011;11407;56.964;-2.212;2023-02-28T05:42:42;1.43;;;1.07;;
22480;SDS011;11407;56.964;-2.212;2023-02-28T05:45:07;1.17;;;1.00;;
22480;SDS011;11407;56.964;-2.212;2023-02-28T05:47:33;1.30;;;1.20;;
22480;SDS011;11407;56.964;-2.212;2023-02-28T05:49:58;1.03;;;0.93;;
22480;SDS011;11407;56.964;-2.212;2023-02-28T05:52:23;1.30;;;1.20;;
22480;SDS011;11407;56.964;-2.212;2023-02-28T05:54:48;1.30;;;1.13;;
22480;SDS011;11407;56.964;-2.212;2023-02-28T05:57:14;1.10;;;1.00;;
22480;SDS011;11407;56.964;-2.212;2023-02-28T05:59:40;0.93;;;0.93;;
22480;SDS011;11407;56.964;-2.212;2023-02-28T06:02:06;1.47;;;0.93;;
22480;SDS011;11407;56.964;-2.212;2023-02-28T06:04:35;1.03;;;0.90;;
22480;SDS011;11407;56.964;-2.212;2023-02-28T06:07:01;1.20;;;1.10;;
22480;SDS011;11407;56.964;-2.212;2023-02-28T06:09:26;1.00;;;0.90;;
22480;SDS011;11407;56.964;-2.212;2023-02-28T06:11:51;1.10;;;1.00;;
22480;SDS011;11407;56.964;-2.212;2023-02-28T06:14:18;1.33;;;1.20;;
22480;SDS011;11407;56.964;-2.212;2023-02-28T06:16:43;2.13;;;1.20;;
22480;SDS011;11407;56.964;-2.212;2023-02-28T06:19:09;1.50;;;1.30;;
22480;SDS011;11407;56.964;-2.212;2023-02-28T06:21:34;1.20;;;1.10;;
22480;SDS011;11407;56.964;-2.212;2023-02-28T06:24:00;1.10;;;0.90;;
22480;SDS011;11407;56.964;-2.212;2023-02-28T06:26:25;1.30;;;1.07;;
22480;SDS011;11407;56.964;-2.212;2023-02-28T06:28:50;1.10;;;1.00;;
22480;SDS011;11407;56.964;-2.212;2023-02-28T06:31:16;1.37;;;1.27;;
22480;SDS011;11407;56.964;-2.212;2023-02-28T06:33:42;1.13;;;1.00;;
22480;SDS011;11407;56.964;-2.212;2023-02-28T06:36:08;1.70;;;1.23;;
22480;SDS011;11407;56.964;-2.212;2023-02-28T06:38:34;1.20;;;1.10;;
22480;SDS011;11407;56.964;-2.212;2023-02-28T06:41:00;1.23;;;1.10;;
22480;SDS011;11407;56.964;-2.212;2023-02-28T06:43:27;1.43;;;1.10;;
22480;SDS011;11407;56.964;-2.212;2023-02-28T06:45:57;5.60;;;1.10;;
22480;SDS011;11407;56.964;-2.212;2023-02-28T06:48:22;2.13;;;1.30;;
22480;SDS011;11407;56.964;-2.212;2023-02-28T06:50:47;1.13;;;1.03;;
22480;SDS011;11407;56.964;-2.212;2023-02-28T06:53:13;1.20;;;1.10;;
22480;SDS011;11407;56.964;-2.212;2023-02-28T06:55:38;1.03;;;1.00;;
22480;SDS011;11407;56.964;-2.212;2023-02-28T06:58:03;1.27;;;1.03;;
22480;SDS011;11407;56.964;-2.212;2023-02-28T07:00:38;1.13;;;1.03;;
22480;SDS011;11407;56.964;-2.212;2023-02-28T07:03:03;1.20;;;1.10;;
22480;SDS011;11407;56.964;-2.212;2023-02-28T07:05:29;1.00;;;0.90;;
22480;SDS011;11407;56.964;-2.212;2023-02-28T07:07:54;1.10;;;1.00;;
22480;SDS011;11407;56.964;-2.212;2023-02-28T07:10:19;1.97;;;1.00;;
22480;SDS011;11407;56.964;-2.212;2023-02-28T07:12:45;1.07;;;0.90;;
22480;SDS011;11407;56.964;-2.212;2023-02-28T07:15:10;2.10;;;1.03;;
22480;SDS011;11407;56.964;-2.212;2023-02-28T07:17:35;1.30;;;1.00;;
22480;SDS011;11407;56.964;-2.212;2023-02-28T07:20:01;1.10;;;1.00;;
22480;SDS011;11407;56.964;-2.212;2023-02-28T07:22:26;0.80;;;0.80;;
22480;SDS011;11407;56.964;-2.212;2023-02-28T07:24:53;0.80;;;0.80;;
22480;SDS011;11407;56.964;-2.212;2023-02-28T07:27:18;1.30;;;0.90;;
22480;SDS011;11407;56.964;-2.212;2023-02-28T07:29:49;1.53;;;0.97;;
22480;SDS011;11407;56.964;-2.212;2023-02-28T07:32:14;1.33;;;1.00;;
22480;SDS011;11407;56.964;-2.212;2023-02-28T07:34:39;2.00;;;0.97;;
22480;SDS011;11407;56.964;-2.212;2023-02-28T07:37:05;3.10;;;0.97;;
22480;SDS011;11407;56.964;-2.212;2023-02-28T07:39:30;1.37;;;0.77;;
22480;SDS011;11407;56.964;-2.212;2023-02-28T07:41:55;1.43;;;0.80;;
22480;SDS011;11407;56.964;-2.212;2023-02-28T07:44:20;1.60;;;0.93;;
22480;SDS011;11407;56.964;-2.212;2023-02-28T07:46:46;2.63;;;0.90;;
22480;SDS011;11407;56.964;-2.212;2023-02-28T07:49:11;1.50;;;0.90;;
22480;SDS011;11407;56.964;-2.212;2023-02-28T07:51:36;1.20;;;1.00;;
22480;SDS011;11407;56.964;-2.212;2023-02-28T07:54:02;1.40;;;1.10;;
22480;SDS011;11407;56.964;-2.212;2023-02-28T07:56:27;1.00;;;0.90;;
22480;SDS011;11407;56.964;-2.212;2023-02-28T07:58:52;1.60;;;1.17;;
22480;SDS011;11407;56.964;-2.212;2023-02-28T08:01:17;1.90;;;1.17;;
22480;SDS011;11407;56.964;-2.212;2023-02-28T08:03:44;1.90;;;1.10;;
22480;SDS011;11407;56.964;-2.212;2023-02-28T08:06:14;1.70;;;1.10;;
22480;SDS011;11407;56.964;-2.212;2023-02-28T08:08:40;2.27;;;1.10;;
22480;SDS011;11407;56.964;-2.212;2023-02-28T08:11:06;1.20;;;1.10;;
22480;SDS011;11407;56.964;-2.212;2023-02-28T08:13:31;1.10;;;0.90;;
22480;SDS011;11407;56.964;-2.212;2023-02-28T08:15:56;1.10;;;1.00;;
22480;SDS011;11407;56.964;-2.212;2023-02-28T08:18:22;1.40;;;1.00;;
22480;SDS011;11407;56.964;-2.212;2023-02-28T08:20:47;0.90;;;0.90;;
22480;SDS011;11407;56.964;-2.212;2023-02-28T08:23:13;1.30;;;0.87;;
22480;SDS011;11407;56.964;-2.212;2023-02-28T08:25:38;1.00;;;0.90;;
22480;SDS011;11407;56.964;-2.212;2023-02-28T08:28:03;1.27;;;0.90;;
22480;SDS011;11407;56.964;-2.212;2023-02-28T08:30:29;3.03;;;1.00;;
22480;SDS011;11407;56.964;-2.212;2023-02-28T08:32:54;0.93;;;0.90;;
22480;SDS011;11407;56.964;-2.212;2023-02-28T08:35:20;1.20;;;1.10;;
22480;SDS011;11407;56.964;-2.212;2023-02-28T08:37:47;2.73;;;1.10;;
22480;SDS011;11407;56.964;-2.212;2023-02-28T08:40:12;1.30;;;1.10;;
22480;SDS011;11407;56.964;-2.212;2023-02-28T08:42:43;2.40;;;1.20;;
22480;SDS011;11407;56.964;-2.212;2023-02-28T08:45:08;2.73;;;1.30;;
22480;SDS011;11407;56.964;-2.212;2023-02-28T08:47:33;1.90;;;1.30;;
22480;SDS011;11407;56.964;-2.212;2023-02-28T08:49:58;2.60;;;1.10;;
22480;SDS011;11407;56.964;-2.212;2023-02-28T08:52:24;2.30;;;1.37;;
22480;SDS011;11407;56.964;-2.212;2023-02-28T08:54:49;2.13;;;1.50;;
22480;SDS011;11407;56.964;-2.212;2023-02-28T08:57:14;1.70;;;1.30;;
22480;SDS011;11407;56.964;-2.212;2023-02-28T08:59:39;1.17;;;1.00;;
22480;SDS011;11407;56.964;-2.212;2023-02-28T09:02:05;2.27;;;1.10;;
22480;SDS011;11407;56.964;-2.212;2023-02-28T09:04:30;1.40;;;1.13;;
22480;SDS011;11407;56.964;-2.212;2023-02-28T09:06:56;1.70;;;1.10;;
22480;SDS011;11407;56.964;-2.212;2023-02-28T09:09:21;1.50;;;1.30;;
22480;SDS011;11407;56.964;-2.212;2023-02-28T09:11:46;2.70;;;1.20;;
22480;SDS011;11407;56.964;-2.212;2023-02-28T09:14:11;3.07;;;1.20;;
22480;SDS011;11407;56.964;-2.212;2023-02-28T09:16:37;2.23;;;1.30;;
22480;SDS011;11407;56.964;-2.212;2023-02-28T09:19:02;2.33;;;1.33;;
22480;SDS011;11407;56.964;-2.212;2023-02-28T09:21:27;2.60;;;1.03;;
22480;SDS011;11407;56.964;-2.212;2023-02-28T09:23:53;1.60;;;1.40;;
22480;SDS011;11407;56.964;-2.212;2023-02-28T09:26:20;3.00;;;1.40;;
22480;SDS011;11407;56.964;-2.212;2023-02-28T09:28:47;2.00;;;1.20;;
22480;SDS011;11407;56.964;-2.212;2023-02-28T09:31:16;2.07;;;1.10;;
22480;SDS011;11407;56.964;-2.212;2023-02-28T09:33:45;1.47;;;1.20;;
22480;SDS011;11407;56.964;-2.212;2023-02-28T09:36:11;2.20;;;1.37;;
22480;SDS011;11407;56.964;-2.212;2023-02-28T09:38:36;1.87;;;1.30;;
22480;SDS011;11407;56.964;-2.212;2023-02-28T09:41:02;2.57;;;1.43;;
22480;SDS011;11407;56.964;-2.212;2023-02-28T09:43:29;1.90;;;1.40;;
22480;SDS011;11407;56.964;-2.212;2023-02-28T09:48:43;3.17;;;1.50;;
22480;SDS011;11407;56.964;-2.212;2023-02-28T09:51:15;1.50;;;1.20;;
22480;SDS011;11407;56.964;-2.212;2023-02-28T09:53:46;4.50;;;1.17;;
22480;SDS011;11407;56.964;-2.212;2023-02-28T09:56:13;1.93;;;1.20;;
22480;SDS011;11407;56.964;-2.212;2023-02-28T09:58:51;2.50;;;1.20;;
22480;SDS011;11407;56.964;-2.212;2023-02-28T10:04:09;3.30;;;1.20;;
22480;SDS011;11407;56.964;-2.212;2023-02-28T10:06:44;1.93;;;1.20;;
22480;SDS011;11407;56.964;-2.212;2023-02-28T10:09:13;2.00;;;1.20;;
22480;SDS011;11407;56.964;-2.212;2023-02-28T10:11:41;1.20;;;1.10;;
22480;SDS011;11407;56.964;-2.212;2023-02-28T10:14:15;2.60;;;1.20;;
22480;SDS011;11407;56.964;-2.212;2023-02-28T10:19:15;1.20;;;1.10;;
22480;SDS011;11407;56.964;-2.212;2023-02-28T10:21:49;2.67;;;1.50;;
22480;SDS011;11407;56.964;-2.212;2023-02-28T10:24:32;1.63;;;1.20;;
22480;SDS011;11407;56.964;-2.212;2023-02-28T10:29:43;1.70;;;1.30;;
22480;SDS011;11407;56.964;-2.212;2023-02-28T10:32:08;2.33;;;1.40;;
22480;SDS011;11407;56.964;-2.212;2023-02-28T10:34:35;1.23;;;1.13;;
22480;SDS011;11407;56.964;-2.212;2023-02-28T10:37:01;2.00;;;1.37;;
22480;SDS011;11407;56.964;-2.212;2023-02-28T10:39:44;1.87;;;1.50;;
22480;SDS011;11407;56.964;-2.212;2023-02-28T10:42:27;1.40;;;1.23;;
22480;SDS011;11407;56.964;-2.212;2023-02-28T10:45:13;1.63;;;1.50;;
22480;SDS011;11407;56.964;-2.212;2023-02-28T10:47:49;2.43;;;1.70;;
22480;SDS011;11407;56.964;-2.212;2023-02-28T10:52:52;1.67;;;1.50;;
22480;SDS011;11407;56.964;-2.212;2023-02-28T10:55:24;3.63;;;1.47;;
22480;SDS011;11407;56.964;-2.212;2023-02-28T10:57:50;1.73;;;1.43;;
22480;SDS011;11407;56.964;-2.212;2023-02-28T11:00:18;1.57;;;1.47;;
22480;SDS011;11407;56.964;-2.212;2023-02-28T11:02:44;2.43;;;1.77;;
22480;SDS011;11407;56.964;-2.212;2023-02-28T11:07:52;2.87;;;1.80;;
22480;SDS011;11407;56.964;-2.212;2023-02-28T11:10:19;2.03;;;1.60;;
22480;SDS011;11407;56.964;-2.212;2023-02-28T11:12:46;2.50;;;1.50;;
22480;SDS011;11407;56.964;-2.212;2023-02-28T11:17:52;1.50;;;1.40;;
22480;SDS011;11407;56.964;-2.212;2023-02-28T11:20:19;1.90;;;1.40;;
22480;SDS011;11407;56.964;-2.212;2023-02-28T11:22:46;2.10;;;1.23;;
22480;SDS011;11407;56.964;-2.212;2023-02-28T11:25:23;1.20;;;1.10;;
22480;SDS011;11407;56.964;-2.212;2023-02-28T11:27:50;1.40;;;1.10;;
22480;SDS011;11407;56.964;-2.212;2023-02-28T11:32:50;1.20;;;1.10;;
22480;SDS011;11407;56.964;-2.212;2023-02-28T11:35:35;2.90;;;1.00;;
22480;SDS011;11407;56.964;-2.212;2023-02-28T11:38:02;0.80;;;0.80;;
22480;SDS011;11407;56.964;-2.212;2023-02-28T11:58:05;0.77;;;0.70;;
22480;SDS011;11407;56.964;-2.212;2023-02-28T12:05:45;0.90;;;0.80;;
22480;SDS011;11407;56.964;-2.212;2023-02-28T12:08:23;4.00;;;1.00;;
22480;SDS011;11407;56.964;-2.212;2023-02-28T12:11:01;1.37;;;0.90;;
22480;SDS011;11407;56.964;-2.212;2023-02-28T12:26:06;1.27;;;0.90;;
22480;SDS011;11407;56.964;-2.212;2023-02-28T12:28:35;1.90;;;0.70;;
22480;SDS011;11407;56.964;-2.212;2023-02-28T12:33:39;2.03;;;0.80;;
22480;SDS011;11407;56.964;-2.212;2023-02-28T12:36:11;0.90;;;0.80;;
22480;SDS011;11407;56.964;-2.212;2023-02-28T12:41:16;1.03;;;0.80;;
22480;SDS011;11407;56.964;-2.212;2023-02-28T12:43:44;0.70;;;0.70;;
22480;SDS011;11407;56.964;-2.212;2023-02-28T12:46:21;0.93;;;0.80;;
22480;SDS011;11407;56.964;-2.212;2023-02-28T12:48:50;1.80;;;0.70;;
22480;SDS011;11407;56.964;-2.212;2023-02-28T12:51:17;1.17;;;0.80;;
22480;SDS011;11407;56.964;-2.212;2023-02-28T12:58:44;0.87;;;0.60;;
22480;SDS011;11407;56.964;-2.212;2023-02-28T13:11:43;1.53;;;0.80;;
22480;SDS011;11407;56.964;-2.212;2023-02-28T13:19:16;0.80;;;0.80;;
22480;SDS011;11407;56.964;-2.212;2023-02-28T13:21:43;2.53;;;0.70;;
22480;SDS011;11407;56.964;-2.212;2023-02-28T13:24:09;1.87;;;0.70;;
22480;SDS011;11407;56.964;-2.212;2023-02-28T13:34:31;2.70;;;0.90;;
22480;SDS011;11407;56.964;-2.212;2023-02-28T13:47:30;1.10;;;1.00;;
22480;SDS011;11407;56.964;-2.212;2023-02-28T13:52:48;2.33;;;1.10;;
22480;SDS011;11407;56.964;-2.212;2023-02-28T13:55:27;3.00;;;1.00;;
22480;SDS011;11407;56.964;-2.212;2023-02-28T14:00:43;2.50;;;1.20;;
22480;SDS011;11407;56.964;-2.212;2023-02-28T14:03:10;2.57;;;1.20;;
22480;SDS011;11407;56.964;-2.212;2023-02-28T14:05:39;2.77;;;1.17;;
22480;SDS011;11407;56.964;-2.212;2023-02-28T14:08:07;2.53;;;1.30;;
22480;SDS011;11407;56.964;-2.212;2023-02-28T14:10:42;3.37;;;0.97;;
22480;SDS011;11407;56.964;-2.212;2023-02-28T14:18:34;2.73;;;1.20;;
22480;SDS011;11407;56.964;-2.212;2023-02-28T14:26:42;2.77;;;1.23;;
22480;SDS011;11407;56.964;-2.212;2023-02-28T14:31:39;3.00;;;1.50;;
22480;SDS011;11407;56.964;-2.212;2023-02-28T14:34:12;4.93;;;1.37;;
22480;SDS011;11407;56.964;-2.212;2023-02-28T14:36:40;3.80;;;1.23;;
22480;SDS011;11407;56.964;-2.212;2023-02-28T14:39:13;3.17;;;1.40;;
22480;SDS011;11407;56.964;-2.212;2023-02-28T14:41:40;2.97;;;1.57;;
22480;SDS011;11407;56.964;-2.212;2023-02-28T14:44:19;2.47;;;1.30;;
22480;SDS011;11407;56.964;-2.212;2023-02-28T14:46:47;4.30;;;1.57;;
22480;SDS011;11407;56.964;-2.212;2023-02-28T14:49:17;3.33;;;1.90;;
22480;SDS011;11407;56.964;-2.212;2023-02-28T14:51:43;5.00;;;1.50;;
22480;SDS011;11407;56.964;-2.212;2023-02-28T14:54:12;4.37;;;1.80;;
22480;SDS011;11407;56.964;-2.212;2023-02-28T14:56:38;2.63;;;1.60;;
22480;SDS011;11407;56.964;-2.212;2023-02-28T14:59:04;2.47;;;1.63;;
22480;SDS011;11407;56.964;-2.212;2023-02-28T15:01:29;5.83;;;1.80;;
22480;SDS011;11407;56.964;-2.212;2023-02-28T15:04:04;2.47;;;1.60;;
22480;SDS011;11407;56.964;-2.212;2023-02-28T15:06:30;2.50;;;1.50;;
22480;SDS011;11407;56.964;-2.212;2023-02-28T15:09:09;3.77;;;1.50;;
22480;SDS011;11407;56.964;-2.212;2023-02-28T15:11:34;3.87;;;1.53;;
22480;SDS011;11407;56.964;-2.212;2023-02-28T15:14:00;2.43;;;1.43;;
22480;SDS011;11407;56.964;-2.212;2023-02-28T15:16:26;4.67;;;1.60;;
22480;SDS011;11407;56.964;-2.212;2023-02-28T15:18:54;4.13;;;1.70;;
22480;SDS011;11407;56.964;-2.212;2023-02-28T15:21:22;2.97;;;1.20;;
22480;SDS011;11407;56.964;-2.212;2023-02-28T15:23:50;3.77;;;1.13;;
22480;SDS011;11407;56.964;-2.212;2023-02-28T15:26:16;2.07;;;1.17;;
22480;SDS011;11407;56.964;-2.212;2023-02-28T15:28:44;2.63;;;1.40;;
22480;SDS011;11407;56.964;-2.212;2023-02-28T15:31:20;3.17;;;1.40;;
22480;SDS011;11407;56.964;-2.212;2023-02-28T15:33:56;1.33;;;1.20;;
22480;SDS011;11407;56.964;-2.212;2023-02-28T15:36:23;3.23;;;1.23;;
22480;SDS011;11407;56.964;-2.212;2023-02-28T15:38:50;4.97;;;1.40;;
22480;SDS011;11407;56.964;-2.212;2023-02-28T15:41:24;3.17;;;1.47;;
22480;SDS011;11407;56.964;-2.212;2023-02-28T15:43:49;2.70;;;1.30;;
22480;SDS011;11407;56.964;-2.212;2023-02-28T15:46:35;4.27;;;1.50;;
22480;SDS011;11407;56.964;-2.212;2023-02-28T15:49:00;2.13;;;1.27;;
22480;SDS011;11407;56.964;-2.212;2023-02-28T15:54:00;2.83;;;1.30;;
22480;SDS011;11407;56.964;-2.212;2023-02-28T15:56:27;2.40;;;1.23;;
22480;SDS011;11407;56.964;-2.212;2023-02-28T15:58:53;4.33;;;1.37;;
22480;SDS011;11407;56.964;-2.212;2023-02-28T16:01:23;2.87;;;1.20;;
22480;SDS011;11407;56.964;-2.212;2023-02-28T16:03:50;2.17;;;0.93;;
22480;SDS011;11407;56.964;-2.212;2023-02-28T16:08:41;3.67;;;1.13;;
22480;SDS011;11407;56.964;-2.212;2023-02-28T16:11:08;2.37;;;1.10;;
22480;SDS011;11407;56.964;-2.212;2023-02-28T16:13:33;1.30;;;1.10;;
22480;SDS011;11407;56.964;-2.212;2023-02-28T16:15:58;4.37;;;1.30;;
22480;SDS011;11407;56.964;-2.212;2023-02-28T16:18:25;2.90;;;1.47;;
22480;SDS011;11407;56.964;-2.212;2023-02-28T16:20:50;2.17;;;1.60;;
22480;SDS011;11407;56.964;-2.212;2023-02-28T16:23:16;3.33;;;1.33;;
22480;SDS011;11407;56.964;-2.212;2023-02-28T16:25:42;4.00;;;1.33;;
22480;SDS011;11407;56.964;-2.212;2023-02-28T16:28:08;1.70;;;0.97;;
22480;SDS011;11407;56.964;-2.212;2023-02-28T16:30:36;3.27;;;1.30;;
22480;SDS011;11407;56.964;-2.212;2023-02-28T16:33:02;4.00;;;1.20;;
22480;SDS011;11407;56.964;-2.212;2023-02-28T16:35:27;0.90;;;0.90;;
22480;SDS011;11407;56.964;-2.212;2023-02-28T16:37:52;1.47;;;1.10;;
22480;SDS011;11407;56.964;-2.212;2023-02-28T16:40:19;4.97;;;1.20;;
22480;SDS011;11407;56.964;-2.212;2023-02-28T16:42:51;1.57;;;1.10;;
22480;SDS011;11407;56.964;-2.212;2023-02-28T16:45:24;3.63;;;1.23;;
22480;SDS011;11407;56.964;-2.212;2023-02-28T16:47:50;1.80;;;1.10;;
22480;SDS011;11407;56.964;-2.212;2023-02-28T16:50:16;3.10;;;1.20;;
22480;SDS011;11407;56.964;-2.212;2023-02-28T16:52:41;1.47;;;1.03;;
22480;SDS011;11407;56.964;-2.212;2023-02-28T16:55:07;3.93;;;1.00;;
22480;SDS011;11407;56.964;-2.212;2023-02-28T16:57:32;2.40;;;1.10;;
22480;SDS011;11407;56.964;-2.212;2023-02-28T16:59:58;1.13;;;1.03;;
22480;SDS011;11407;56.964;-2.212;2023-02-28T17:02:23;0.90;;;0.80;;
22480;SDS011;11407;56.964;-2.212;2023-02-28T17:04:48;2.87;;;0.90;;
22480;SDS011;11407;56.964;-2.212;2023-02-28T17:07:14;2.90;;;0.97;;
22480;SDS011;11407;56.964;-2.212;2023-02-28T17:09:41;2.17;;;1.10;;
22480;SDS011;11407;56.964;-2.212;2023-02-28T17:12:07;1.93;;;0.90;;
22480;SDS011;11407;56.964;-2.212;2023-02-28T17:14:33;2.97;;;1.10;;
22480;SDS011;11407;56.964;-2.212;2023-02-28T17:16:58;2.33;;;0.93;;
22480;SDS011;11407;56.964;-2.212;2023-02-28T17:19:23;2.87;;;1.10;;
22480;SDS011;11407;56.964;-2.212;2023-02-28T17:21:49;2.97;;;1.10;;
22480;SDS011;11407;56.964;-2.212;2023-02-28T17:24:14;4.27;;;1.13;;